METAR πλησιέστερων αεροδρομίων

 

LGIR - Iraklion Airport
Απόσταση από το σταθμό: ΒΔ 62km
Ενημερώθηκε: 15/07/2020 02:20
Λίγα σύννεφα
Λίγα σύννεφα
 Ανεμος από ΔΒΔ
Ανεμος: ΔΒΔ 13 km/h
Θερμοκρασία: 23°C
Σημείο Δρόσου: 17°C
Υγρασία: 69%
Βαρόμετρο: 1012 hPa
Νέφη: Λίγα σύννεφα
Ορατότητα: 10 km
Λεπτομέρειες νεφών: Λίγα σύννεφα 762 m
2020/07/14 23:20 LGIR 142320Z 30007KT 9999 FEW025 23/17 Q1012 NOSIG
LGSA - Souda/Chania Airport
Απόσταση από το σταθμό: ΔΒΔ 154km
Ενημερώθηκε: 15/07/2020 02:20
Αίθριος
Αίθριος
 Ανεμος από calm
Ανεμος: Απνοια
Θερμοκρασία: 22°C
Σημείο Δρόσου: 18°C
Υγρασία: 78%
Βαρόμετρο: 1012 hPa
Περίληψη: Αίθριος
Ορατότητα: μεγαλύτερη από 10 km
2020/07/14 23:20 LGSA 142320Z 00000KT CAVOK 22/18 Q1012